This is the latest recevied weather packets stored in our database for station/object C31FR-13. If no packets are shown the sender has not sent any weather packets the latest 10 day(s).
| Time | Temp. | Humidity | Pressure | Rain* | Wind** | Luminosity | Snow |
|---|---|---|---|---|---|---|---|
| 1777607462 | 11.67° C | 91% | 1021.6 hPa | - | - | - | - |
| 1777607163 | 11.67° C | 91% | 1021.5 hPa | - | - | - | - |
| 1777606862 | 12.22° C | 89% | 1021.5 hPa | - | - | - | - |
| 1777606562 | 12.22° C | 87% | 1021.5 hPa | - | - | - | - |
| 1777606262 | 12.22° C | 88% | 1021.5 hPa | - | - | - | - |
| 1777605962 | 12.22° C | 89% | 1021.5 hPa | - | - | - | - |
| 1777605662 | 12.78° C | 88% | 1021.5 hPa | - | - | - | - |
| 1777605062 | 12.78° C | 89% | 1021.5 hPa | - | - | - | - |
| 1777604762 | 12.78° C | 89% | 1021.4 hPa | - | - | - | - |
| 1777604463 | 12.78° C | 89% | 1021.5 hPa | - | - | - | - |
| 1777604162 | 12.22° C | 89% | 1021.5 hPa | - | - | - | - |
| 1777603862 | 12.78° C | 88% | 1021.5 hPa | - | - | - | - |
| 1777603562 | 12.78° C | 87% | 1021.5 hPa | - | - | - | - |
| 1777603263 | 12.22° C | 88% | 1021.5 hPa | - | - | - | - |
| 1777602963 | 12.78° C | 88% | 1021.5 hPa | - | - | - | - |
| 1777602662 | 12.78° C | 87% | 1021.4 hPa | - | - | - | - |
| 1777602362 | 12.78° C | 89% | 1021.4 hPa | - | - | - | - |
| 1777601463 | 12.78° C | 91% | 1021.2 hPa | - | - | - | - |
| 1777600262 | 12.78° C | 92% | 1021.3 hPa | - | - | - | - |
| 1777587062 | 15.56° C | 70% | 1020.6 hPa | - | - | - | - |
| 1777586462 | 15.56° C | 71% | 1020.5 hPa | - | - | - | - |
| 1777584062 | 15.56° C | 72% | 1020.4 hPa | - | - | - | - |
| 1777583762 | 15.56° C | 74% | 1020.3 hPa | - | - | - | - |
| 1777583162 | 15.56° C | 73% | 1020.3 hPa | - | - | - | - |
| 1777582862 | 15.56° C | 73% | 1020.2 hPa | - | - | - | - |
* Rain since midnight (hover to see other rain measurements)
** Current wind speed in m/s (hover to see current wind gust speed)